createdAt,value
2023-05-19T00:00:34.558Z,101784.56
2023-05-19T00:03:03.337Z,101783.72
2023-05-19T00:05:31.737Z,101787.22
2023-05-19T00:08:00.960Z,101782.97
2023-05-19T00:10:31.629Z,101784.75
2023-05-19T00:13:00.484Z,101787.41
2023-05-19T00:15:30.382Z,101787.47
2023-05-19T00:17:58.955Z,101790.13
2023-05-19T00:20:27.060Z,101795.38
2023-05-19T00:22:55.098Z,101796.22
2023-05-19T00:25:26.007Z,101802.31
2023-05-19T00:27:54.023Z,101799.69
2023-05-19T00:30:22.913Z,101793.63
2023-05-19T00:32:52.584Z,101794.50
2023-05-19T00:35:21.720Z,101791.94
2023-05-19T00:37:49.500Z,101793.59
2023-05-19T00:40:17.652Z,101792.72
2023-05-19T00:42:46.599Z,101799.66
2023-05-19T00:45:14.393Z,101786.75
2023-05-19T00:47:42.273Z,101791.09
2023-05-19T00:50:11.950Z,101792.91
2023-05-19T00:52:39.769Z,101793.81
2023-05-19T00:55:11.120Z,101792.16
2023-05-19T00:57:39.184Z,101793.13
2023-05-19T01:00:11.228Z,101790.63
2023-05-19T01:02:40.036Z,101792.44
2023-05-19T01:05:08.690Z,101788.19
2023-05-19T01:07:38.357Z,101789.97
2023-05-19T01:10:06.902Z,101788.25
2023-05-19T01:12:34.813Z,101797.75
2023-05-19T01:15:03.436Z,101783.91
2023-05-19T01:17:36.766Z,101785.63
2023-05-19T01:20:11.057Z,101786.50
2023-05-19T01:22:59.006Z,101783.06
2023-05-19T01:25:52.870Z,101787.44
2023-05-19T01:28:44.727Z,101787.44
2023-05-19T01:31:14.222Z,101778.00
2023-05-19T01:33:42.984Z,101778.06
2023-05-19T01:36:12.941Z,101780.69
2023-05-19T01:38:41.333Z,101779.84
2023-05-19T01:41:09.566Z,101778.13
2023-05-19T01:43:37.641Z,101786.78
2023-05-19T01:46:06.404Z,101783.25
2023-05-19T01:48:39.868Z,101789.38
2023-05-19T01:51:07.618Z,101787.66
2023-05-19T01:53:36.111Z,101785.13
2023-05-19T01:56:07.677Z,101792.91
2023-05-19T01:58:42.052Z,101794.72
2023-05-19T02:01:12.588Z,101798.25
2023-05-19T02:04:05.031Z,101791.47
2023-05-19T02:06:40.179Z,101792.34
2023-05-19T02:09:11.421Z,101791.56
2023-05-19T02:11:46.330Z,101789.91
2023-05-19T02:14:17.297Z,101796.91
2023-05-19T02:16:46.794Z,101794.38
2023-05-19T02:19:27.181Z,101790.97
2023-05-19T02:21:55.041Z,101793.53
2023-05-19T02:24:25.799Z,101798.72
2023-05-19T02:26:54.485Z,101801.34
2023-05-19T02:29:22.466Z,101799.66
2023-05-19T02:31:50.403Z,101793.69
2023-05-19T02:34:18.231Z,101792.97
2023-05-19T02:36:49.746Z,101787.84
2023-05-19T02:39:17.629Z,101787.13
2023-05-19T02:41:45.503Z,101776.06
2023-05-19T02:44:13.264Z,101777.09
2023-05-19T02:46:41.146Z,101778.94
2023-05-19T02:49:08.935Z,101767.81
2023-05-19T02:51:36.714Z,101766.16
2023-05-19T02:54:07.338Z,101765.41
2023-05-19T02:56:35.099Z,101764.63
2023-05-19T02:59:02.878Z,101766.38
2023-05-19T03:01:32.739Z,101763.88
2023-05-19T03:04:00.654Z,101763.03
2023-05-19T03:06:29.465Z,101770.84
2023-05-19T03:08:57.240Z,101777.78
2023-05-19T03:11:26.443Z,101775.25
2023-05-19T03:13:57.315Z,101767.53
2023-05-19T03:16:25.221Z,101766.72
2023-05-19T03:18:53.058Z,101776.22
2023-05-19T03:21:21.432Z,101773.66
2023-05-19T03:23:49.198Z,101778.84
2023-05-19T03:26:16.922Z,101776.28
2023-05-19T03:28:46.092Z,101775.41
2023-05-19T03:31:16.658Z,101771.97
2023-05-19T03:33:44.455Z,101778.88
2023-05-19T03:36:12.671Z,101774.56
2023-05-19T03:38:40.436Z,101781.50
2023-05-19T03:41:08.185Z,101771.13
2023-05-19T03:43:36.014Z,101786.63
2023-05-19T03:46:05.220Z,101780.53
2023-05-19T03:48:33.002Z,101784.84
2023-05-19T03:51:01.476Z,101779.59
2023-05-19T03:53:30.500Z,101773.56
2023-05-19T03:55:59.418Z,101782.16
2023-05-19T03:58:27.194Z,101780.41
2023-05-19T04:00:55.389Z,101782.13
2023-05-19T04:03:26.113Z,101780.38
2023-05-19T04:05:54.181Z,101778.63
2023-05-19T04:08:22.058Z,101783.78
2023-05-19T04:10:49.802Z,101780.34
2023-05-19T04:13:17.512Z,101783.75
2023-05-19T04:15:46.098Z,101791.44
2023-05-19T04:18:14.567Z,101777.53
2023-05-19T04:20:43.688Z,101785.22
2023-05-19T04:23:11.535Z,101791.97
2023-05-19T04:25:40.828Z,101783.22
2023-05-19T04:28:08.445Z,101797.81
2023-05-19T04:30:37.022Z,101790.75
2023-05-19T04:33:05.359Z,101791.50
2023-05-19T04:35:33.249Z,101795.66
2023-05-19T04:38:02.824Z,101788.66
2023-05-19T04:40:31.297Z,101788.53
2023-05-19T04:43:02.086Z,101786.72
2023-05-19T04:45:30.139Z,101793.50
2023-05-19T04:47:58.656Z,101790.84
2023-05-19T04:50:26.484Z,101790.75
2023-05-19T04:52:54.275Z,101791.47
2023-05-19T04:55:23.507Z,101794.72
2023-05-19T04:57:51.126Z,101798.19
2023-05-19T05:00:20.574Z,101794.50
2023-05-19T05:02:49.028Z,101793.56
2023-05-19T05:05:17.040Z,101792.56
2023-05-19T05:07:44.868Z,101794.91
2023-05-19T05:10:12.730Z,101796.47
2023-05-19T05:12:42.906Z,101797.16
2023-05-19T05:15:12.094Z,101783.94
2023-05-19T05:17:40.013Z,101789.84
2023-05-19T05:20:08.978Z,101789.34
2023-05-19T05:22:38.669Z,101792.56
2023-05-19T05:25:07.715Z,101788.81
2023-05-19T05:27:35.860Z,101795.44
2023-05-19T05:30:05.733Z,101787.28
2023-05-19T05:32:33.654Z,101788.69
2023-05-19T05:35:01.514Z,101792.75
2023-05-19T05:37:29.355Z,101788.06
2023-05-19T05:39:57.124Z,101779.03
2023-05-19T05:42:25.310Z,101788.38
2023-05-19T05:44:54.223Z,101783.78
2023-05-19T05:47:23.867Z,101782.69
2023-05-19T05:49:53.551Z,101778.75
2023-05-19T05:52:22.977Z,101770.75
2023-05-19T05:54:50.825Z,101774.25
2023-05-19T05:57:19.179Z,101763.28
2023-05-19T05:59:47.232Z,101762.03
2023-05-19T06:02:15.062Z,101762.56
2023-05-19T06:04:45.110Z,101762.34
2023-05-19T06:07:12.920Z,101758.59
2023-05-19T06:09:40.820Z,101754.81
2023-05-19T06:12:09.188Z,101755.34
2023-05-19T06:14:36.967Z,101764.63
2023-05-19T06:17:05.119Z,101757.28
2023-05-19T06:19:33.278Z,101755.50
2023-05-19T06:22:02.391Z,101753.41
2023-05-19T06:24:29.978Z,101751.47
2023-05-19T06:26:57.715Z,101751.59
2023-05-19T06:29:25.538Z,101756.53
2023-05-19T06:31:53.398Z,101751.00
2023-05-19T06:34:21.317Z,101759.22
2023-05-19T06:36:49.099Z,101747.34
2023-05-19T06:39:18.252Z,101752.91
2023-05-19T06:41:45.831Z,101754.19
2023-05-19T06:44:13.616Z,101753.50
2023-05-19T06:46:41.508Z,101763.25
2023-05-19T06:49:09.303Z,101754.28
2023-05-19T06:51:38.897Z,101753.06
2023-05-19T06:54:06.745Z,101764.00
2023-05-19T06:56:36.508Z,101757.56
2023-05-19T06:59:04.429Z,101759.06
2023-05-19T07:01:32.244Z,101759.59
2023-05-19T07:04:00.184Z,101754.63
2023-05-19T07:06:28.228Z,101760.09
2023-05-19T07:08:56.056Z,101759.41
2023-05-19T07:11:24.304Z,101755.44
2023-05-19T07:13:53.939Z,101761.19
2023-05-19T07:16:21.722Z,101759.88
2023-05-19T07:18:49.500Z,101752.53
2023-05-19T07:21:17.287Z,101750.75
2023-05-19T07:23:45.122Z,101744.06
2023-05-19T07:26:12.923Z,101742.66
2023-05-19T07:28:42.550Z,101736.81
2023-05-19T07:31:11.987Z,101738.00
2023-05-19T07:33:39.814Z,101739.31
2023-05-19T07:36:07.732Z,101737.63
2023-05-19T07:38:35.765Z,101731.25
2023-05-19T07:41:04.154Z,101733.00
2023-05-19T07:43:31.970Z,101726.56
2023-05-19T07:45:59.859Z,101725.59
2023-05-19T07:48:29.586Z,101725.41
2023-05-19T07:50:57.364Z,101702.53
2023-05-19T07:53:25.152Z,101705.03
2023-05-19T07:55:52.979Z,101712.13
2023-05-19T07:58:20.742Z,101700.34
2023-05-19T08:00:48.512Z,101702.63
2023-05-19T08:03:18.489Z,101697.78
2023-05-19T08:05:47.763Z,101688.94
2023-05-19T08:08:16.967Z,101682.84
2023-05-19T08:10:45.020Z,101687.47
2023-05-19T08:13:12.805Z,101692.97
2023-05-19T08:15:41.270Z,101701.03
2023-05-19T08:18:09.244Z,101692.75
2023-05-19T08:20:37.582Z,101693.44
2023-05-19T08:23:06.719Z,101696.91
2023-05-19T08:25:34.520Z,101693.22
2023-05-19T08:28:02.322Z,101686.09
2023-05-19T08:30:30.169Z,101685.41
2023-05-19T08:32:58.215Z,101676.47
2023-05-19T08:35:26.226Z,101685.50
2023-05-19T08:37:54.052Z,101679.97
2023-05-19T08:40:24.186Z,101673.41
2023-05-19T08:42:51.943Z,101673.34
2023-05-19T08:45:20.303Z,101669.72
2023-05-19T08:47:48.092Z,101675.47
2023-05-19T08:50:21.281Z,101664.22
2023-05-19T08:52:53.462Z,101671.72
2023-05-19T08:55:31.070Z,101668.78
2023-05-19T08:57:59.224Z,101669.69
2023-05-19T09:00:27.414Z,101667.19
2023-05-19T09:03:01.205Z,101664.41
2023-05-19T09:05:40.122Z,101656.84
2023-05-19T09:08:08.205Z,101663.69
2023-05-19T09:10:37.607Z,101659.34
2023-05-19T09:13:06.614Z,101666.81
2023-05-19T09:15:37.014Z,101652.78
2023-05-19T09:18:08.626Z,101669.22
2023-05-19T09:20:39.541Z,101660.13
2023-05-19T09:23:07.814Z,101653.63
2023-05-19T09:25:37.343Z,101640.91
2023-05-19T09:28:05.343Z,101642.59
2023-05-19T09:30:37.676Z,101648.09
2023-05-19T09:33:13.363Z,101641.94
2023-05-19T09:35:42.108Z,101646.47
2023-05-19T09:38:09.726Z,101626.59
2023-05-19T09:40:38.872Z,101632.22
2023-05-19T09:43:09.180Z,101633.75
2023-05-19T09:45:37.188Z,101639.88
2023-05-19T09:48:05.723Z,101643.22
2023-05-19T09:50:34.164Z,101629.59
2023-05-19T09:53:04.152Z,101632.31
2023-05-19T09:55:33.153Z,101638.78
2023-05-19T09:58:04.894Z,101628.31
2023-05-19T10:00:34.037Z,101626.41
2023-05-19T10:03:02.821Z,101624.25
2023-05-19T10:05:31.035Z,101626.44
2023-05-19T10:07:58.975Z,101615.66
2023-05-19T10:10:27.718Z,101631.38
2023-05-19T10:12:55.445Z,101612.06
2023-05-19T10:15:25.144Z,101626.94
2023-05-19T10:17:53.700Z,101610.34
2023-05-19T10:20:21.669Z,101603.81
2023-05-19T10:22:49.666Z,101604.69
2023-05-19T10:25:20.006Z,101614.16
2023-05-19T10:27:58.076Z,101616.09
2023-05-19T10:30:32.904Z,101611.72
2023-05-19T10:33:01.752Z,101605.81
2023-05-19T10:35:41.621Z,101603.97
2023-05-19T10:38:16.388Z,101606.03
2023-05-19T10:40:54.660Z,101604.34
2023-05-19T10:43:27.133Z,101594.44
2023-05-19T10:46:00.729Z,101592.56
2023-05-19T10:48:28.530Z,101595.66
2023-05-19T10:50:57.860Z,101598.41
2023-05-19T10:53:32.191Z,101603.59
2023-05-19T10:56:04.165Z,101594.97
2023-05-19T10:58:40.149Z,101587.06
2023-05-19T11:01:14.999Z,101604.13
2023-05-19T11:03:48.033Z,101597.88
2023-05-19T11:06:26.501Z,101594.34
2023-05-19T11:08:55.980Z,101588.44
2023-05-19T11:11:24.162Z,101579.75
2023-05-19T11:13:52.620Z,101573.59
2023-05-19T11:16:28.273Z,101588.38
2023-05-19T11:18:56.824Z,101585.22
2023-05-19T11:21:24.829Z,101580.06
2023-05-19T11:23:53.763Z,101592.81
2023-05-19T11:26:43.227Z,101594.94
2023-05-19T11:29:11.601Z,101585.34
2023-05-19T11:31:44.795Z,101581.78
2023-05-19T11:34:15.323Z,101574.00
2023-05-19T11:36:44.088Z,101584.47
2023-05-19T11:39:11.792Z,101585.91
2023-05-19T11:41:40.818Z,101577.25
2023-05-19T11:44:11.559Z,101567.66
2023-05-19T11:46:39.441Z,101565.72
2023-05-19T11:49:08.671Z,101568.81
2023-05-19T11:51:38.340Z,101578.28
2023-05-19T11:54:06.526Z,101565.22
2023-05-19T11:56:35.690Z,101565.22
2023-05-19T11:59:03.596Z,101554.44
2023-05-19T12:01:32.023Z,101567.03
2023-05-19T12:03:59.947Z,101559.56
2023-05-19T12:06:29.283Z,101552.88
2023-05-19T12:08:57.151Z,101559.44
2023-05-19T12:11:25.139Z,101549.94
2023-05-19T12:13:54.650Z,101546.25
2023-05-19T12:16:22.937Z,101548.72
2023-05-19T12:18:50.878Z,101552.84
2023-05-19T12:21:18.874Z,101540.16
2023-05-19T12:23:51.511Z,101543.75
2023-05-19T12:26:20.156Z,101527.88
2023-05-19T12:28:47.924Z,101531.78
2023-05-19T12:31:15.814Z,101542.28
2023-05-19T12:33:43.666Z,101525.66
2023-05-19T12:36:13.394Z,101532.50
2023-05-19T12:38:42.386Z,101528.00
2023-05-19T12:41:13.617Z,101523.28
2023-05-19T12:43:42.397Z,101524.75
2023-05-19T12:46:13.116Z,101521.31
2023-05-19T12:48:44.613Z,101529.22
2023-05-19T12:51:13.193Z,101507.78
2023-05-19T12:53:41.059Z,101509.50
2023-05-19T12:56:14.987Z,101505.53
2023-05-19T12:58:43.231Z,101505.19
2023-05-19T13:01:17.528Z,101507.59
2023-05-19T13:03:46.023Z,101501.91
2023-05-19T13:06:14.040Z,101482.94
2023-05-19T13:08:47.928Z,101490.69
2023-05-19T13:11:17.184Z,101495.09
2023-05-19T13:13:45.430Z,101503.41
2023-05-19T13:16:13.564Z,101497.38
2023-05-19T13:18:41.426Z,101494.22
2023-05-19T13:21:09.257Z,101498.31
2023-05-19T13:23:37.713Z,101494.34
2023-05-19T13:26:07.798Z,101484.75
2023-05-19T13:28:37.037Z,101488.59
2023-05-19T13:31:04.913Z,101485.69
2023-05-19T13:33:33.328Z,101480.38
2023-05-19T13:36:01.394Z,101483.66
2023-05-19T13:38:30.398Z,101489.44
2023-05-19T13:40:58.234Z,101478.94
2023-05-19T13:43:25.982Z,101470.41
2023-05-19T13:45:55.133Z,101480.81
2023-05-19T13:48:22.972Z,101471.41
2023-05-19T13:50:52.547Z,101469.78
2023-05-19T13:53:20.304Z,101475.44
2023-05-19T13:55:48.266Z,101466.56
2023-05-19T13:58:17.023Z,101468.38
2023-05-19T14:03:16.121Z,101456.09
2023-05-19T14:05:44.231Z,101441.84
2023-05-19T14:08:12.290Z,101469.88
2023-05-19T14:10:40.103Z,101464.75
2023-05-19T14:15:41.231Z,101458.03
2023-05-19T14:18:09.066Z,101465.25
2023-05-19T14:20:38.284Z,101459.00
2023-05-19T14:23:06.138Z,101465.09
2023-05-19T14:25:33.964Z,101468.53
2023-05-19T14:28:02.438Z,101463.31
2023-05-19T14:30:30.220Z,101456.16
2023-05-19T14:33:01.232Z,101446.56
2023-05-19T14:35:29.144Z,101463.56
2023-05-19T14:37:58.244Z,101466.94
2023-05-19T14:40:29.246Z,101456.44
2023-05-19T14:42:58.334Z,101462.09
2023-05-19T14:45:30.816Z,101450.03
2023-05-19T14:48:00.768Z,101448.53
2023-05-19T14:50:29.333Z,101445.25
2023-05-19T14:52:58.935Z,101445.59
2023-05-19T14:55:26.886Z,101443.97
2023-05-19T14:57:54.698Z,101441.53
2023-05-19T15:00:22.535Z,101450.31
2023-05-19T15:02:50.489Z,101451.28
2023-05-19T15:05:18.328Z,101446.22
2023-05-19T15:07:46.411Z,101451.06
2023-05-19T15:10:16.452Z,101445.75
2023-05-19T15:12:44.455Z,101446.97
2023-05-19T15:15:12.731Z,101443.97
2023-05-19T15:17:41.070Z,101445.59
2023-05-19T15:20:09.679Z,101451.19
2023-05-19T15:22:37.520Z,101450.84
2023-05-19T15:25:05.840Z,101442.78
2023-05-19T15:27:35.559Z,101440.22
2023-05-19T15:30:03.410Z,101453.25
2023-05-19T15:32:31.345Z,101434.81
2023-05-19T15:34:59.417Z,101423.16
2023-05-19T15:37:31.589Z,101425.41
2023-05-19T15:39:59.395Z,101427.72
2023-05-19T15:42:27.298Z,101446.00
2023-05-19T15:44:56.429Z,101451.28
2023-05-19T15:47:24.344Z,101449.00
2023-05-19T15:49:52.175Z,101438.25
2023-05-19T15:52:19.903Z,101432.66
2023-05-19T15:54:48.673Z,101441.16
2023-05-19T15:57:16.467Z,101424.88
2023-05-19T15:59:44.187Z,101431.75
2023-05-19T16:02:13.355Z,101444.00
2023-05-19T16:04:41.149Z,101430.50
2023-05-19T16:07:08.920Z,101434.94
2023-05-19T16:09:36.732Z,101430.03
2023-05-19T16:12:04.933Z,101424.75
2023-05-19T16:14:36.336Z,101427.16
2023-05-19T16:17:04.705Z,101427.84
2023-05-19T16:19:33.961Z,101420.84
2023-05-19T16:22:01.864Z,101417.97
2023-05-19T16:24:29.662Z,101426.56
2023-05-19T16:26:57.444Z,101421.50
2023-05-19T16:29:25.285Z,101422.09
2023-05-19T16:31:53.197Z,101413.47
2023-05-19T16:34:21.073Z,101416.84
2023-05-19T16:36:50.393Z,101405.97
2023-05-19T16:39:18.182Z,101411.69
2023-05-19T16:41:46.074Z,101409.47
2023-05-19T16:44:14.661Z,101407.16
2023-05-19T16:46:42.680Z,101413.09
2023-05-19T16:49:11.146Z,101403.69
2023-05-19T16:51:39.186Z,101407.28
2023-05-19T16:54:08.521Z,101407.00
2023-05-19T16:56:36.554Z,101404.78
2023-05-19T16:59:04.721Z,101409.63
2023-05-19T17:01:32.572Z,101408.06
2023-05-19T17:04:00.435Z,101411.13
2023-05-19T17:06:28.335Z,101399.84
2023-05-19T17:08:56.111Z,101406.50
2023-05-19T17:11:25.299Z,101403.25
2023-05-19T17:13:53.139Z,101406.38
2023-05-19T17:16:21.377Z,101395.84
2023-05-19T17:18:49.232Z,101399.03
2023-05-19T17:21:17.638Z,101396.47
2023-05-19T17:23:45.614Z,101406.47
2023-05-19T17:26:13.477Z,101399.97
2023-05-19T17:28:42.632Z,101401.22
2023-05-19T17:31:11.868Z,101401.53
2023-05-19T17:33:39.922Z,101405.72
2023-05-19T17:36:08.668Z,101394.78
2023-05-19T17:38:40.145Z,101406.94
2023-05-19T17:41:10.707Z,101400.78
2023-05-19T17:43:39.030Z,101407.00
2023-05-19T17:46:08.284Z,101408.88
2023-05-19T17:48:36.712Z,101412.34
2023-05-19T17:51:05.863Z,101406.44
2023-05-19T17:53:34.705Z,101407.06
2023-05-19T17:56:04.211Z,101416.00
2023-05-19T17:58:32.570Z,101413.88
2023-05-19T18:01:00.748Z,101413.16
2023-05-19T18:03:30.488Z,101426.91
2023-05-19T18:05:58.544Z,101417.66
2023-05-19T18:08:27.106Z,101417.09
2023-05-19T18:10:56.332Z,101419.19
2023-05-19T18:13:24.089Z,101416.56
2023-05-19T18:15:52.644Z,101418.72
2023-05-19T18:18:20.550Z,101416.41
2023-05-19T18:20:51.966Z,101417.66
2023-05-19T18:23:20.528Z,101418.13
2023-05-19T18:25:53.341Z,101419.00
2023-05-19T18:28:21.433Z,101426.31
2023-05-19T18:30:49.250Z,101425.75
2023-05-19T18:33:17.053Z,101435.53
2023-05-19T18:35:44.845Z,101435.28
2023-05-19T18:38:13.954Z,101439.97
2023-05-19T18:40:44.106Z,101440.38
2023-05-19T18:43:11.941Z,101445.13
2023-05-19T18:45:39.765Z,101444.59
2023-05-19T18:48:08.728Z,101442.06
2023-05-19T18:50:37.115Z,101443.66
2023-05-19T18:53:04.922Z,101445.34
2023-05-19T18:55:35.442Z,101442.00
2023-05-19T18:58:04.334Z,101451.38
2023-05-19T19:00:32.835Z,101450.06
2023-05-19T19:03:01.768Z,101447.69
2023-05-19T19:05:29.889Z,101448.22
2023-05-19T19:07:58.020Z,101448.69
2023-05-19T19:10:25.830Z,101448.28
2023-05-19T19:12:55.072Z,101447.81
2023-05-19T19:15:22.938Z,101460.63
2023-05-19T19:17:50.827Z,101453.09
2023-05-19T19:20:18.917Z,101464.00
2023-05-19T19:22:46.667Z,101471.28
2023-05-19T19:25:14.705Z,101473.31
2023-05-19T19:27:42.560Z,101477.25
2023-05-19T19:30:14.106Z,101478.53
2023-05-19T19:32:41.935Z,101479.03
2023-05-19T19:35:10.560Z,101480.25
2023-05-19T19:37:38.385Z,101487.53
2023-05-19T19:40:07.591Z,101481.69
2023-05-19T19:42:35.518Z,101481.84
2023-05-19T19:45:03.369Z,101487.31
2023-05-19T19:47:32.725Z,101493.81
2023-05-19T19:50:02.522Z,101496.78
2023-05-19T19:52:30.664Z,101494.53
2023-05-19T19:54:58.479Z,101498.41
2023-05-19T19:57:27.021Z,101499.72
2023-05-19T19:59:57.473Z,101498.53
2023-05-19T20:02:25.327Z,101502.41
2023-05-19T20:04:55.051Z,101501.97
2023-05-19T20:07:25.086Z,101513.78
2023-05-19T20:09:52.889Z,101509.09
2023-05-19T20:12:20.703Z,101509.47
2023-05-19T20:14:50.602Z,101508.91
2023-05-19T20:17:18.433Z,101508.31
2023-05-19T20:19:46.193Z,101507.63
2023-05-19T20:22:15.473Z,101514.78
2023-05-19T20:24:43.260Z,101515.09
2023-05-19T20:27:11.149Z,101516.25
2023-05-19T20:29:38.929Z,101511.34
2023-05-19T20:32:07.367Z,101516.09
2023-05-19T20:34:35.195Z,101517.78
2023-05-19T20:37:03.055Z,101523.13
2023-05-19T20:39:32.227Z,101522.50
2023-05-19T20:41:59.814Z,101518.63
2023-05-19T20:44:27.656Z,101520.47
2023-05-19T20:46:55.701Z,101524.38
2023-05-19T20:49:23.594Z,101533.38
2023-05-19T20:51:53.905Z,101521.59
2023-05-19T20:54:21.852Z,101533.28
2023-05-19T20:56:51.873Z,101532.78
2023-05-19T20:59:19.658Z,101529.69
2023-05-19T21:01:47.557Z,101537.88
2023-05-19T21:04:15.500Z,101538.19
2023-05-19T21:06:43.345Z,101534.16
2023-05-19T21:09:11.410Z,101537.13
2023-05-19T21:11:39.224Z,101531.31
2023-05-19T21:14:09.299Z,101534.38
2023-05-19T21:16:38.830Z,101532.88
2023-05-19T21:19:07.375Z,101530.47
2023-05-19T21:21:35.383Z,101537.66
2023-05-19T21:24:03.168Z,101529.19
2023-05-19T21:26:30.980Z,101538.91
2023-05-19T21:28:58.796Z,101534.81
2023-05-19T21:31:28.069Z,101530.56
2023-05-19T21:33:55.930Z,101530.72
2023-05-19T21:36:23.984Z,101537.03
2023-05-19T21:38:51.860Z,101528.50
2023-05-19T21:41:19.679Z,101531.31
2023-05-19T21:43:47.392Z,101527.13
2023-05-19T21:46:15.330Z,101539.38
2023-05-19T21:48:44.511Z,101542.13
2023-05-19T21:51:12.090Z,101546.81
2023-05-19T21:53:39.890Z,101546.81
2023-05-19T21:56:07.967Z,101537.50
2023-05-19T21:58:37.724Z,101550.63
2023-05-19T22:01:05.792Z,101549.75
2023-05-19T22:03:33.624Z,101558.50
2023-05-19T22:06:06.533Z,101546.31
2023-05-19T22:08:34.324Z,101547.09
2023-05-19T22:11:02.125Z,101549.75
2023-05-19T22:13:30.298Z,101543.75
2023-05-19T22:15:58.362Z,101543.72
2023-05-19T22:18:26.288Z,101539.41
2023-05-19T22:20:54.060Z,101538.50
2023-05-19T22:23:23.253Z,101542.00
2023-05-19T22:25:50.982Z,101545.63
2023-05-19T22:28:18.772Z,101535.19
2023-05-19T22:30:46.644Z,101546.59
2023-05-19T22:33:14.733Z,101547.56
2023-05-19T22:35:42.937Z,101533.91
2023-05-19T22:38:11.778Z,101537.66
2023-05-19T22:40:43.883Z,101541.28
2023-05-19T22:43:11.663Z,101537.91
2023-05-19T22:45:39.416Z,101539.84
2023-05-19T22:48:07.637Z,101545.25
2023-05-19T22:50:35.465Z,101542.78
2023-05-19T22:53:03.241Z,101538.50
2023-05-19T22:55:31.141Z,101535.13
2023-05-19T22:58:00.363Z,101534.41
2023-05-19T23:00:28.201Z,101535.34
2023-05-19T23:02:56.122Z,101528.69
2023-05-19T23:05:23.976Z,101528.94
2023-05-19T23:07:51.804Z,101523.94
2023-05-19T23:10:19.618Z,101525.72
2023-05-19T23:12:47.449Z,101524.09
2023-05-19T23:15:16.603Z,101525.81
2023-05-19T23:17:44.560Z,101528.41
2023-05-19T23:20:14.179Z,101524.09
2023-05-19T23:22:42.152Z,101528.53
2023-05-19T23:25:10.494Z,101532.94
2023-05-19T23:27:38.374Z,101524.25
2023-05-19T23:30:07.465Z,101521.78
2023-05-19T23:32:36.725Z,101529.56
2023-05-19T23:35:12.394Z,101527.84
2023-05-19T23:37:40.143Z,101533.91
2023-05-19T23:40:09.183Z,101519.13
2023-05-19T23:42:37.653Z,101526.16
2023-05-19T23:45:05.951Z,101526.16
2023-05-19T23:47:33.733Z,101534.88
2023-05-19T23:50:08.178Z,101527.22
2023-05-19T23:52:35.960Z,101523.72
2023-05-19T23:55:03.927Z,101527.34
2023-05-19T23:57:31.740Z,101517.00
